Time;durP1;ratioP1;P1;durP2;ratioP2;P2;SDS_P1;SDS_P2;PMS_P1;PMS_P2;Temp;Humidity;BMP_temperature;BMP_pressure;BME280_temperature;BME280_humidity;BME280_pressure;Samples;Min_cycle;Max_cycle;Signal;HPM_P1;HPM_P2
2022/04/01 00:02:01;;;;;;;35.30;27.03;;;6.30;99.90;;;;;;5057432;28;20268;-70
2022/04/01 00:04:26;;;;;;;34.10;26.40;;;6.30;99.90;;;;;;5060017;28;20266;-70
2022/04/01 00:06:52;;;;;;;34.63;26.70;;;6.20;99.90;;;;;;5059199;28;20180;-69
2022/04/01 00:09:18;;;;;;;32.33;25.60;;;6.20;99.90;;;;;;5061141;28;20263;-70
2022/04/01 00:11:44;;;;;;;36.73;27.70;;;6.20;99.90;;;;;;5058729;28;20700;-70
2022/04/01 00:14:10;;;;;;;33.77;26.30;;;6.20;99.90;;;;;;5062739;28;20200;-71
2022/04/01 00:16:35;;;;;;;33.23;26.20;;;6.20;99.90;;;;;;5060666;28;20599;-69
2022/04/01 00:19:01;;;;;;;36.53;27.97;;;6.20;99.90;;;;;;5060426;28;20205;-70
2022/04/01 00:21:27;;;;;;;31.57;25.83;;;6.30;99.90;;;;;;5058660;28;20267;-69
2022/04/01 00:23:52;;;;;;;34.77;27.70;;;6.30;99.90;;;;;;5060158;28;20210;-70
2022/04/01 00:26:18;;;;;;;33.93;26.60;;;6.20;99.90;;;;;;5060001;28;20231;-69
2022/04/01 00:28:44;;;;;;;33.73;26.87;;;6.20;99.90;;;;;;5059866;28;20665;-70
2022/04/01 00:31:10;;;;;;;37.20;27.67;;;6.20;99.90;;;;;;5058914;28;20184;-69
2022/04/01 00:33:36;;;;;;;33.03;26.77;;;6.20;99.90;;;;;;5060965;28;20254;-70
2022/04/01 00:36:02;;;;;;;33.70;25.80;;;6.20;99.90;;;;;;5060959;28;20182;-69
2022/04/01 00:38:29;;;;;;;33.50;27.00;;;6.20;99.90;;;;;;5063007;28;20234;-69
2022/04/01 00:40:54;;;;;;;35.73;27.23;;;6.20;99.90;;;;;;5066392;28;20240;-70
2022/04/01 00:43:32;;;;;;;32.73;27.07;;;6.30;99.90;;;;;;5063095;28;20221;-70
2022/04/01 00:45:58;;;;;;;33.40;27.37;;;6.30;99.90;;;;;;5064219;28;20196;-69
2022/04/01 00:48:27;;;;;;;36.43;28.50;;;6.30;99.90;;;;;;5064328;28;20660;-70
2022/04/01 00:50:54;;;;;;;35.57;27.30;;;6.30;99.90;;;;;;5046262;28;20208;-70
2022/04/01 00:53:22;;;;;;;34.87;28.17;;;6.30;99.90;;;;;;5062939;28;20284;-70
2022/04/01 00:55:49;;;;;;;34.07;27.40;;;6.40;99.90;;;;;;5061747;28;20239;-70
2022/04/01 00:58:15;;;;;;;34.07;27.83;;;6.40;99.90;;;;;;5063527;28;20625;-69
2022/04/01 01:00:42;;;;;;;36.37;28.27;;;6.30;99.90;;;;;;5065731;28;20239;-70
2022/04/01 01:03:09;;;;;;;34.00;26.93;;;6.30;99.90;;;;;;5064585;28;20210;-70
2022/04/01 01:05:35;;;;;;;34.90;27.37;;;6.30;99.90;;;;;;5061918;28;20179;-70
2022/04/01 01:08:05;;;;;;;33.90;27.27;;;6.20;99.90;;;;;;5062124;28;20292;-69
2022/04/01 01:10:31;;;;;;;32.30;25.60;;;6.20;99.90;;;;;;5084536;28;20192;-71
2022/04/01 01:12:57;;;;;;;34.33;28.17;;;6.20;99.90;;;;;;5061404;28;20198;-70
2022/04/01 01:15:25;;;;;;;33.27;26.30;;;6.20;99.90;;;;;;5061492;28;20220;-70
2022/04/01 01:17:51;;;;;;;35.27;27.60;;;6.10;99.90;;;;;;5062075;28;20178;-70
2022/04/01 01:20:18;;;;;;;35.43;27.47;;;6.10;99.90;;;;;;5069902;28;20217;-69
2022/04/01 01:22:49;;;;;;;32.83;26.30;;;6.10;99.90;;;;;;5064114;28;20591;-70
2022/04/01 01:25:15;;;;;;;34.33;27.17;;;6.10;99.90;;;;;;5064043;28;20178;-70
2022/04/01 01:27:43;;;;;;;33.77;27.43;;;6.00;99.90;;;;;;5069664;28;20602;-69
2022/04/01 01:30:10;;;;;;;32.10;25.67;;;6.10;99.90;;;;;;5077267;28;20217;-71
2022/04/01 01:32:36;;;;;;;31.07;25.33;;;6.00;99.90;;;;;;5059881;28;20268;-69
2022/04/01 01:35:04;;;;;;;33.73;26.63;;;6.00;99.90;;;;;;5053867;28;20609;-70
2022/04/01 01:37:30;;;;;;;34.23;27.37;;;6.00;99.90;;;;;;5064133;28;20689;-70
2022/04/01 01:39:56;;;;;;;31.70;26.43;;;6.00;99.90;;;;;;5061013;28;20254;-70
2022/04/01 01:42:22;;;;;;;33.07;26.90;;;6.10;99.90;;;;;;5062866;28;20186;-69
2022/04/01 01:44:49;;;;;;;35.00;27.83;;;6.10;99.90;;;;;;5060355;28;20209;-71
2022/04/01 01:47:14;;;;;;;32.27;25.90;;;6.10;99.90;;;;;;5061479;28;20178;-70
2022/04/01 01:54:42;;;;;;;33.30;26.80;;;6.10;99.90;;;;;;5060486;28;20206;-70
2022/04/01 01:55:11;;;;;;;34.60;27.43;;;6.10;99.90;;;;;;5062725;28;20189;-70
2022/04/01 01:57:37;;;;;;;34.13;26.50;;;6.10;99.90;;;;;;5061618;28;20177;-70
2022/04/01 02:00:10;;;;;;;34.13;27.00;;;6.00;99.90;;;;;;5059289;28;20263;-70
2022/04/01 02:02:39;;;;;;;34.60;26.73;;;6.00;99.90;;;;;;5063174;28;20189;-70
2022/04/01 02:05:06;;;;;;;34.00;27.30;;;5.90;99.90;;;;;;5062338;28;20198;-70
2022/04/01 02:07:32;;;;;;;33.80;27.53;;;5.90;99.90;;;;;;5061123;28;20684;-70
2022/04/01 02:09:58;;;;;;;31.37;25.80;;;5.90;99.90;;;;;;5062217;28;20391;-70
2022/04/01 02:12:24;;;;;;;31.03;25.93;;;5.90;99.90;;;;;;5062416;28;20217;-70
2022/04/01 02:14:50;;;;;;;30.63;24.70;;;5.90;99.90;;;;;;5061391;28;20563;-71
2022/04/01 02:17:15;;;;;;;31.40;25.27;;;5.90;99.90;;;;;;5060193;28;20558;-70
2022/04/01 02:19:41;;;;;;;33.87;26.10;;;5.90;99.90;;;;;;5059298;28;20255;-71
2022/04/01 02:22:07;;;;;;;31.77;25.50;;;6.00;99.90;;;;;;5060381;28;20565;-70
2022/04/01 02:24:36;;;;;;;35.57;27.47;;;6.00;99.90;;;;;;5061764;28;20197;-70
2022/04/01 02:27:03;;;;;;;32.77;25.23;;;6.00;99.90;;;;;;5045207;28;20542;-70
2022/04/01 02:29:29;;;;;;;32.30;26.03;;;6.10;99.90;;;;;;5060141;28;20185;-70
2022/04/01 02:32:28;;;;;;;31.73;25.37;;;6.10;99.90;;;;;;5036589;28;20185;-70
2022/04/01 02:35:13;;;;;;;31.10;24.40;;;6.10;99.90;;;;;;5060139;28;20197;-70
2022/04/01 02:37:40;;;;;;;29.70;23.67;;;6.10;99.90;;;;;;5057851;28;20260;-70
2022/04/01 02:40:09;;;;;;;32.87;26.17;;;6.20;99.90;;;;;;5065342;28;20215;-70
2022/04/01 02:42:35;;;;;;;32.30;25.93;;;6.10;99.90;;;;;;5056297;28;20250;-70
2022/04/01 02:45:01;;;;;;;29.83;23.83;;;6.20;99.90;;;;;;5058576;28;20225;-70
2022/04/01 02:47:27;;;;;;;29.03;23.80;;;6.20;99.90;;;;;;5060443;28;20314;-71
2022/04/01 02:49:54;;;;;;;30.57;25.43;;;6.20;99.90;;;;;;5061030;28;20193;-70
2022/04/01 02:52:20;;;;;;;28.63;23.47;;;6.20;99.90;;;;;;5063747;28;20193;-71
2022/04/01 02:54:46;;;;;;;28.63;24.03;;;6.20;99.90;;;;;;5057904;28;20610;-70
2022/04/01 02:57:13;;;;;;;29.37;24.27;;;6.20;99.90;;;;;;5058137;28;20268;-70
2022/04/01 02:59:40;;;;;;;28.40;24.07;;;6.20;99.90;;;;;;5075858;28;20197;-70
2022/04/01 03:02:07;;;;;;;29.27;24.30;;;6.20;99.90;;;;;;5063262;28;20185;-72
2022/04/01 03:04:33;;;;;;;30.20;24.07;;;6.10;99.90;;;;;;5059290;28;20197;-71
2022/04/01 03:07:01;;;;;;;29.33;22.87;;;6.10;99.90;;;;;;5059010;28;20689;-70
2022/04/01 03:09:29;;;;;;;30.07;24.70;;;6.10;99.90;;;;;;5065146;28;20681;-70
2022/04/01 03:12:07;;;;;;;28.53;23.90;;;6.10;99.90;;;;;;5063657;28;20173;-71
2022/04/01 03:14:56;;;;;;;27.23;23.00;;;6.10;99.90;;;;;;5061266;28;20262;-71
2022/04/01 03:17:24;;;;;;;28.17;23.43;;;6.00;99.90;;;;;;5062083;28;20193;-70
2022/04/01 03:19:50;;;;;;;28.23;23.33;;;6.00;99.90;;;;;;5062092;28;20209;-71
2022/04/01 03:22:16;;;;;;;28.63;23.10;;;6.00;99.90;;;;;;5060283;28;20259;-71
2022/04/01 03:24:43;;;;;;;29.07;23.93;;;6.10;99.90;;;;;;5059829;28;20204;-70
2022/04/01 03:27:09;;;;;;;27.27;23.00;;;6.00;99.90;;;;;;5058960;28;20185;-70
2022/04/01 03:29:34;;;;;;;27.23;22.60;;;6.00;99.90;;;;;;5065867;28;20185;-71
2022/04/01 03:32:02;;;;;;;28.97;24.50;;;6.00;99.90;;;;;;5059191;28;20193;-70
2022/04/01 03:34:28;;;;;;;29.17;23.93;;;5.90;99.90;;;;;;5063255;28;20291;-70
2022/04/01 03:36:55;;;;;;;28.27;23.43;;;5.90;99.90;;;;;;5059547;28;20716;-71
2022/04/01 03:39:24;;;;;;;27.60;22.50;;;6.00;99.90;;;;;;5062523;28;20185;-70
2022/04/01 03:41:54;;;;;;;27.87;23.47;;;5.90;99.90;;;;;;5064779;28;20181;-70
2022/04/01 03:44:24;;;;;;;29.17;24.07;;;6.00;99.90;;;;;;5059861;28;20592;-71
2022/04/01 03:47:05;;;;;;;26.87;22.27;;;5.90;99.90;;;;;;5056514;28;20189;-71
2022/04/01 03:49:33;;;;;;;28.87;23.63;;;5.90;99.90;;;;;;5055920;28;20187;-70
2022/04/01 03:52:01;;;;;;;28.63;23.67;;;5.90;99.90;;;;;;5062643;28;20181;-72
2022/04/01 03:54:30;;;;;;;29.10;23.70;;;5.90;99.90;;;;;;5059727;28;20209;-70
2022/04/01 03:57:01;;;;;;;27.43;23.07;;;5.80;99.90;;;;;;5060097;28;20184;-70
2022/04/01 04:00:12;;;;;;;28.53;22.63;;;5.80;99.90;;;;;;5060035;28;20209;-70
2022/04/01 04:02:46;;;;;;;26.50;22.23;;;5.80;99.90;;;;;;5063647;28;20603;-70
2022/04/01 04:05:18;;;;;;;28.57;23.67;;;5.70;99.90;;;;;;5059845;28;20181;-70
2022/04/01 04:07:45;;;;;;;27.33;22.40;;;5.70;99.90;;;;;;5060590;28;20178;-70
2022/04/01 04:10:15;;;;;;;31.10;24.80;;;5.70;99.90;;;;;;5080115;28;20660;-70
2022/04/01 04:13:00;;;;;;;28.77;23.17;;;5.80;99.90;;;;;;5064291;28;20185;-70
2022/04/01 04:15:52;;;;;;;26.53;21.90;;;5.80;99.90;;;;;;5062159;28;20181;-70
2022/04/01 04:18:20;;;;;;;28.57;22.43;;;5.80;99.90;;;;;;5074002;28;20232;-70
2022/04/01 04:21:00;;;;;;;29.67;23.50;;;5.80;99.90;;;;;;5068751;28;20210;-70
2022/04/01 04:23:46;;;;;;;28.17;21.93;;;5.80;99.90;;;;;;5063544;28;20193;-71
2022/04/01 04:26:16;;;;;;;26.40;20.87;;;5.80;99.90;;;;;;5066440;28;20192;-70
2022/04/01 04:28:50;;;;;;;26.43;21.13;;;5.80;99.90;;;;;;5080780;28;20642;-71
2022/04/01 04:31:36;;;;;;;26.27;20.20;;;5.80;99.90;;;;;;5070844;28;20184;-70
2022/04/01 04:34:10;;;;;;;25.33;19.77;;;5.80;99.90;;;;;;5065435;28;20200;-71
2022/04/01 04:36:42;;;;;;;24.53;19.13;;;5.80;99.90;;;;;;5064129;28;20183;-70
2022/04/01 04:39:28;;;;;;;24.83;19.97;;;5.80;99.90;;;;;;5062498;28;20551;-71
2022/04/01 04:41:55;;;;;;;24.53;19.93;;;5.70;99.90;;;;;;5063833;28;20195;-70
2022/04/01 04:44:29;;;;;;;24.40;19.23;;;5.80;99.90;;;;;;5063002;28;20231;-70
2022/04/01 04:47:03;;;;;;;22.13;18.33;;;5.80;99.90;;;;;;5062868;28;20648;-70
2022/04/01 04:49:30;;;;;;;23.87;18.73;;;5.80;99.90;;;;;;5061877;28;20213;-70
2022/04/01 04:51:58;;;;;;;25.57;19.47;;;5.90;99.90;;;;;;5064362;28;20185;-70
2022/04/01 04:54:32;;;;;;;24.80;19.00;;;5.90;99.90;;;;;;5064886;28;20209;-70
2022/04/01 04:57:13;;;;;;;21.27;16.93;;;5.80;99.90;;;;;;5067332;28;20215;-70
2022/04/01 04:59:42;;;;;;;21.43;17.17;;;5.90;99.90;;;;;;5064821;28;20217;-71
2022/04/01 05:02:33;;;;;;;19.37;16.77;;;5.80;99.90;;;;;;5046708;28;20197;-70
2022/04/01 05:05:18;;;;;;;21.00;17.23;;;5.80;99.90;;;;;;5064473;28;20548;-70
2022/04/01 05:08:17;;;;;;;21.33;16.97;;;5.80;99.90;;;;;;5063898;28;20683;-70
2022/04/01 05:11:12;;;;;;;21.70;17.13;;;5.80;99.90;;;;;;5084705;28;20182;-70
2022/04/01 05:13:55;;;;;;;19.13;16.00;;;5.80;99.90;;;;;;5063211;28;20204;-71
2022/04/01 05:16:24;;;;;;;21.50;17.77;;;5.80;99.90;;;;;;5062610;28;20185;-70
2022/04/01 05:19:14;;;;;;;22.50;18.23;;;5.80;99.90;;;;;;5061618;28;20181;-71
2022/04/01 05:22:02;;;;;;;22.53;17.67;;;5.80;99.90;;;;;;5060126;28;20205;-70
2022/04/01 05:24:48;;;;;;;23.03;18.17;;;5.80;99.90;;;;;;5060328;28;20213;-70
2022/04/01 05:27:20;;;;;;;23.40;18.37;;;5.70;99.90;;;;;;5076219;28;20185;-70
2022/04/01 05:30:20;;;;;;;21.13;16.87;;;5.70;99.90;;;;;;5048460;28;20193;-70
2022/04/01 05:33:06;;;;;;;21.13;17.80;;;5.70;99.90;;;;;;5060670;28;20190;-70
2022/04/01 05:35:36;;;;;;;23.80;18.63;;;5.80;99.90;;;;;;5060317;28;20200;-69
2022/04/01 05:38:02;;;;;;;23.80;18.53;;;5.80;99.90;;;;;;5063116;28;20195;-71
2022/04/01 05:40:30;;;;;;;23.70;18.60;;;5.80;99.90;;;;;;5050638;28;20295;-72
2022/04/01 05:42:59;;;;;;;23.40;18.87;;;5.80;99.90;;;;;;5071045;28;20858;-72
2022/04/01 05:45:57;;;;;;;22.87;18.07;;;5.80;99.90;;;;;;5064144;28;20185;-71
2022/04/01 05:48:25;;;;;;;24.13;19.20;;;5.80;99.90;;;;;;5063989;28;20192;-72
2022/04/01 05:50:53;;;;;;;23.47;18.57;;;5.80;99.90;;;;;;5077373;28;20185;-71
2022/04/01 05:53:21;;;;;;;23.47;18.07;;;5.80;99.90;;;;;;5068607;28;20227;-71
2022/04/01 05:55:51;;;;;;;22.43;17.90;;;5.80;99.90;;;;;;5064730;28;20177;-70
2022/04/01 05:58:17;;;;;;;26.27;19.43;;;5.80;99.90;;;;;;5061391;28;20185;-73
2022/04/01 06:00:55;;;;;;;21.67;18.10;;;5.80;99.90;;;;;;5060440;28;21057;-74
2022/04/01 06:03:57;;;;;;;25.40;19.60;;;5.80;99.90;;;;;;5061805;28;20274;-73
2022/04/01 06:06:37;;;;;;;25.00;19.57;;;5.80;99.90;;;;;;5050702;28;20201;-73
2022/04/01 06:09:24;;;;;;;28.17;22.23;;;5.70;99.90;;;;;;5061835;28;20263;-71
2022/04/01 06:12:31;;;;;;;24.23;19.13;;;5.80;99.90;;;;;;5059728;28;20649;-72
2022/04/01 06:15:24;;;;;;;25.57;20.77;;;5.70;99.90;;;;;;5062826;28;20192;-71
2022/04/01 06:18:51;;;;;;;26.63;21.20;;;5.80;99.90;;;;;;5067561;28;20671;-72
2022/04/01 06:21:26;;;;;;;23.30;19.53;;;5.80;99.90;;;;;;5062318;28;20223;-73
2022/04/01 06:24:32;;;;;;;23.23;19.17;;;5.80;99.90;;;;;;5046909;28;20208;-71
2022/04/01 06:27:02;;;;;;;24.37;19.33;;;5.70;99.90;;;;;;5064389;28;20185;-71
2022/04/01 06:29:37;;;;;;;31.30;20.37;;;5.70;99.90;;;;;;5066029;28;20657;-71
2022/04/01 06:32:13;;;;;;;24.43;20.13;;;5.70;99.90;;;;;;5062386;28;20263;-72
2022/04/01 06:34:55;;;;;;;24.43;20.00;;;5.70;99.90;;;;;;5046071;28;20204;-71
2022/04/01 06:37:46;;;;;;;21.93;19.43;;;5.70;99.90;;;;;;5055906;28;20245;-72
2022/04/01 06:40:12;;;;;;;20.60;18.37;;;5.70;99.90;;;;;;5061280;28;20721;-72
2022/04/01 06:42:47;;;;;;;21.87;19.07;;;5.70;99.90;;;;;;5068856;28;20177;-71
2022/04/01 06:45:33;;;;;;;22.33;19.10;;;5.70;99.90;;;;;;5064582;28;20181;-71
2022/04/01 06:48:17;;;;;;;20.67;16.97;;;5.70;99.90;;;;;;5061150;28;20177;-72
2022/04/01 06:51:10;;;;;;;21.93;18.80;;;5.70;99.90;;;;;;5061401;28;20271;-72
2022/04/01 06:53:54;;;;;;;28.27;19.23;;;5.70;99.90;;;;;;5063266;28;20255;-73
2022/04/01 06:56:46;;;;;;;24.30;18.10;;;5.70;99.90;;;;;;5061376;28;20177;-73
2022/04/01 06:59:13;;;;;;;22.27;17.87;;;5.70;99.90;;;;;;5071925;28;20181;-72
2022/04/01 07:01:39;;;;;;;22.90;18.40;;;5.70;99.90;;;;;;5061836;28;20220;-72
2022/04/01 07:04:05;;;;;;;20.70;17.63;;;5.70;99.90;;;;;;5068966;28;20208;-75
2022/04/01 07:06:34;;;;;;;19.07;16.83;;;5.70;99.90;;;;;;5075887;28;20207;-73
2022/04/01 07:09:00;;;;;;;19.40;16.97;;;5.70;99.90;;;;;;5060154;28;20257;-73
2022/04/01 07:11:25;;;;;;;19.33;16.97;;;5.60;99.90;;;;;;5061361;28;20626;-72
2022/04/01 07:13:53;;;;;;;20.27;17.73;;;5.70;99.90;;;;;;5060839;28;20267;-72
2022/04/01 07:16:19;;;;;;;19.43;16.40;;;5.70;99.90;;;;;;5063089;28;20180;-73
2022/04/01 07:18:44;;;;;;;18.07;15.67;;;5.70;99.90;;;;;;5083505;28;20264;-73
2022/04/01 07:21:11;;;;;;;17.60;15.67;;;5.70;99.90;;;;;;5058230;28;20575;-73
2022/04/01 07:23:37;;;;;;;18.73;16.03;;;5.70;99.90;;;;;;5068737;28;20193;-73
2022/04/01 07:26:03;;;;;;;16.83;14.80;;;5.70;99.90;;;;;;5068099;28;20181;-73
2022/04/01 07:28:29;;;;;;;17.57;15.27;;;5.70;99.90;;;;;;5064858;28;20190;-72
2022/04/01 07:30:55;;;;;;;30.23;17.23;;;5.70;99.90;;;;;;5057091;28;20228;-72
2022/04/01 07:33:21;;;;;;;20.27;15.67;;;5.80;99.90;;;;;;5061391;28;20229;-72
2022/04/01 07:35:47;;;;;;;21.23;15.10;;;5.80;99.90;;;;;;5066550;28;20181;-72
2022/04/01 07:38:14;;;;;;;20.80;15.77;;;5.70;99.90;;;;;;5065880;28;20177;-72
2022/04/01 07:40:40;;;;;;;16.90;15.10;;;5.70;99.90;;;;;;5063090;28;20229;-73
2022/04/01 07:43:05;;;;;;;15.97;14.23;;;5.60;99.90;;;;;;5057868;28;20205;-75
2022/04/01 07:45:34;;;;;;;16.90;15.13;;;5.70;99.90;;;;;;5063338;28;20293;-74
2022/04/01 07:48:01;;;;;;;15.17;13.57;;;5.60;99.90;;;;;;5061063;28;20204;-73
2022/04/01 07:50:27;;;;;;;17.57;15.67;;;5.60;99.90;;;;;;5058102;28;20186;-73
2022/04/01 07:52:54;;;;;;;19.50;17.37;;;5.70;99.90;;;;;;5061110;28;20220;-72
2022/04/01 07:55:20;;;;;;;26.37;17.40;;;5.60;99.90;;;;;;5058056;28;20182;-72
2022/04/01 07:57:49;;;;;;;20.93;16.70;;;5.60;99.90;;;;;;5058674;28;20178;-71
2022/04/01 08:00:17;;;;;;;19.17;16.53;;;5.60;99.90;;;;;;5063615;28;20288;-71
2022/04/01 08:02:44;;;;;;;19.93;16.90;;;5.60;99.90;;;;;;5059661;28;20193;-72
2022/04/01 08:05:10;;;;;;;22.47;17.27;;;5.50;99.90;;;;;;5060579;28;20246;-72
2022/04/01 08:07:36;;;;;;;19.77;17.07;;;5.50;99.90;;;;;;5063676;28;20196;-73
2022/04/01 08:10:04;;;;;;;33.77;17.67;;;5.60;99.90;;;;;;5065928;28;20701;-73
2022/04/01 08:12:36;;;;;;;24.23;17.10;;;5.60;99.90;;;;;;5063936;28;20656;-72
2022/04/01 08:15:03;;;;;;;20.83;18.53;;;5.60;99.90;;;;;;5061851;28;20201;-72
2022/04/01 08:17:29;;;;;;;18.43;16.27;;;5.50;99.90;;;;;;5062416;28;20186;-72
2022/04/01 08:19:54;;;;;;;20.27;17.27;;;5.50;99.90;;;;;;5059050;28;20208;-73
2022/04/01 08:22:20;;;;;;;19.10;16.97;;;5.50;99.90;;;;;;5065236;28;20291;-72
2022/04/01 08:24:46;;;;;;;21.60;18.03;;;5.40;99.90;;;;;;5060026;28;20193;-72
2022/04/01 08:27:14;;;;;;;22.60;18.90;;;5.40;99.90;;;;;;5061942;28;20178;-72
2022/04/01 08:29:41;;;;;;;21.23;18.33;;;5.40;99.90;;;;;;5061582;28;20185;-72
2022/04/01 08:32:07;;;;;;;19.57;17.30;;;5.40;99.90;;;;;;5065141;28;20182;-72
2022/04/01 08:34:33;;;;;;;22.87;18.07;;;5.40;99.90;;;;;;5063209;28;20201;-72
2022/04/01 08:36:59;;;;;;;19.27;16.93;;;5.40;99.90;;;;;;5061497;28;20856;-72
2022/04/01 08:39:25;;;;;;;19.87;16.63;;;5.50;99.90;;;;;;5065661;28;20533;-73
2022/04/01 08:41:51;;;;;;;22.03;17.80;;;5.50;99.90;;;;;;5060123;28;20209;-71
2022/04/01 08:44:17;;;;;;;20.10;17.07;;;5.50;99.90;;;;;;5066867;28;20208;-72
2022/04/01 08:46:43;;;;;;;19.33;16.77;;;5.40;99.90;;;;;;5066957;28;20181;-72
2022/04/01 08:49:09;;;;;;;20.73;17.23;;;5.50;99.90;;;;;;5063756;28;20185;-72
2022/04/01 08:51:35;;;;;;;20.40;17.40;;;5.40;99.90;;;;;;5064102;28;20181;-72
2022/04/01 08:54:02;;;;;;;22.13;18.23;;;5.40;99.90;;;;;;5060829;28;20712;-72
2022/04/01 08:56:29;;;;;;;23.10;18.50;;;5.40;99.90;;;;;;5072979;28;20227;-72
2022/04/01 08:58:55;;;;;;;19.20;16.73;;;5.40;99.90;;;;;;5063881;28;20262;-73
2022/04/01 09:01:21;;;;;;;22.33;18.60;;;5.30;99.90;;;;;;5065450;28;20304;-73
2022/04/01 09:03:47;;;;;;;21.30;16.97;;;5.40;99.90;;;;;;5067723;28;20213;-71
2022/04/01 09:06:12;;;;;;;21.17;16.60;;;5.40;99.90;;;;;;5064276;28;20181;-72
2022/04/01 09:08:41;;;;;;;21.60;17.97;;;5.50;99.90;;;;;;5066958;28;20319;-71
2022/04/01 09:11:17;;;;;;;21.27;18.30;;;5.50;99.90;;;;;;5068198;28;20181;-73
2022/04/01 09:13:42;;;;;;;23.53;17.63;;;5.50;99.90;;;;;;5068358;28;20232;-71
2022/04/01 09:16:21;;;;;;;23.40;17.37;;;5.40;99.90;;;;;;5068175;28;20209;-71
2022/04/01 09:18:47;;;;;;;22.70;18.83;;;5.40;99.90;;;;;;5066610;28;20569;-72
2022/04/01 09:21:14;;;;;;;22.13;18.10;;;5.40;99.90;;;;;;5078488;28;20355;-72
2022/04/01 09:23:46;;;;;;;24.57;19.07;;;5.40;99.90;;;;;;5067829;28;20197;-71
2022/04/01 09:26:12;;;;;;;22.53;18.53;;;5.50;99.90;;;;;;5071461;28;20200;-71
2022/04/01 09:28:40;;;;;;;19.27;16.80;;;5.50;99.90;;;;;;5068356;28;20215;-71
2022/04/01 09:31:10;;;;;;;19.53;17.43;;;5.40;99.90;;;;;;5068209;28;20520;-71
2022/04/01 09:33:52;;;;;;;19.83;17.33;;;5.40;99.90;;;;;;5066808;28;20225;-71
2022/04/01 09:36:22;;;;;;;22.13;16.87;;;5.40;99.90;;;;;;5061579;28;20552;-71
2022/04/01 09:38:52;;;;;;;23.50;18.40;;;5.40;99.90;;;;;;5062315;28;20228;-72
2022/04/01 09:41:19;;;;;;;24.13;17.30;;;5.40;99.90;;;;;;5055048;28;20238;-71
2022/04/01 09:43:46;;;;;;;19.77;16.20;;;5.40;99.90;;;;;;5069540;28;20279;-71
2022/04/01 09:46:25;;;;;;;20.10;16.40;;;5.40;99.90;;;;;;5072184;28;20548;-71
2022/04/01 09:48:55;;;;;;;19.87;16.77;;;5.40;99.90;;;;;;5067844;28;20174;-71
2022/04/01 09:51:21;;;;;;;18.73;15.40;;;5.40;99.90;;;;;;5066220;28;20189;-71
2022/04/01 09:53:52;;;;;;;18.27;14.57;;;5.40;99.90;;;;;;5067384;28;20193;-72
2022/04/01 09:56:19;;;;;;;15.27;13.50;;;5.40;99.90;;;;;;5065559;28;20189;-71
2022/04/01 09:58:45;;;;;;;17.53;13.90;;;5.40;99.90;;;;;;5070556;28;20200;-72
2022/04/01 10:01:11;;;;;;;15.47;13.23;;;5.40;99.90;;;;;;5065693;28;20197;-74
2022/04/01 10:03:37;;;;;;;14.83;13.23;;;5.40;99.90;;;;;;5066219;28;21546;-75
2022/04/01 10:06:04;;;;;;;17.40;13.73;;;5.40;99.90;;;;;;5068282;28;20324;-75
2022/04/01 10:08:32;;;;;;;17.03;13.17;;;5.50;99.90;;;;;;5069025;28;20205;-75
2022/04/01 10:10:58;;;;;;;15.27;12.73;;;5.50;99.90;;;;;;5071656;28;20204;-73
2022/04/01 10:13:31;;;;;;;12.53;11.23;;;5.60;99.90;;;;;;5061503;28;20592;-73
2022/04/01 10:16:00;;;;;;;12.50;10.77;;;5.60;99.90;;;;;;5060463;28;20673;-75
2022/04/01 10:18:28;;;;;;;13.80;10.73;;;5.70;99.90;;;;;;5063670;28;20185;-70
2022/04/01 10:20:54;;;;;;;11.20;9.50;;;5.80;99.90;;;;;;5062662;28;20755;-72
2022/04/01 10:23:23;;;;;;;11.50;10.20;;;5.80;99.90;;;;;;5058281;28;20291;-71
2022/04/01 10:25:59;;;;;;;10.70;9.50;;;5.80;99.90;;;;;;5060943;28;20189;-71
2022/04/01 10:28:26;;;;;;;10.80;9.67;;;5.80;99.90;;;;;;5060965;28;20269;-71
2022/04/01 10:30:56;;;;;;;10.73;9.20;;;5.80;99.90;;;;;;5061976;28;20186;-72
2022/04/01 10:33:24;;;;;;;11.20;9.23;;;5.70;99.90;;;;;;5062681;28;20296;-72
2022/04/01 10:35:51;;;;;;;11.03;9.17;;;5.80;99.90;;;;;;5058455;28;20186;-70
2022/04/01 10:38:20;;;;;;;13.63;9.57;;;5.80;99.90;;;;;;5058286;28;20189;-74
2022/04/01 10:40:50;;;;;;;11.43;8.97;;;5.90;99.90;;;;;;5059161;28;20216;-70
2022/04/01 10:43:20;;;;;;;12.40;10.10;;;5.90;99.90;;;;;;5056427;28;20300;-70
2022/04/01 10:46:04;;;;;;;10.53;8.90;;;5.90;99.90;;;;;;5058596;28;20665;-70
2022/04/01 10:51:37;;;;;;;10.90;9.60;;;5.70;99.90;;;;;;5060984;28;20269;-73
2022/04/01 10:54:23;;;;;;;11.17;9.87;;;5.70;99.90;;;;;;5062942;28;20198;-76
2022/04/01 10:56:56;;;;;;;10.50;8.93;;;5.70;99.90;;;;;;5062320;28;20268;-75
2022/04/01 10:59:25;;;;;;;10.23;9.17;;;5.60;99.90;;;;;;5061405;28;20240;-73
2022/04/01 11:01:53;;;;;;;15.90;8.83;;;5.60;99.90;;;;;;5064420;28;20657;-77
2022/04/01 11:04:21;;;;;;;15.30;9.90;;;5.60;99.90;;;;;;5032679;28;20205;-73
2022/04/01 11:07:02;;;;;;;9.40;8.40;;;5.60;99.90;;;;;;5062695;28;20216;-73
2022/04/01 11:09:56;;;;;;;9.50;8.50;;;5.50;99.90;;;;;;5060701;28;20181;-74
2022/04/01 11:12:54;;;;;;;9.93;8.83;;;5.50;99.90;;;;;;5061183;28;20193;-73
2022/04/01 11:15:25;;;;;;;9.17;8.27;;;5.40;99.90;;;;;;5063046;28;20190;-73
2022/04/01 11:17:57;;;;;;;11.37;8.70;;;5.40;99.90;;;;;;5063135;28;20192;-73
2022/04/01 11:20:31;;;;;;;10.90;8.93;;;5.30;99.90;;;;;;5060084;28;20835;-76
2022/04/01 11:23:03;;;;;;;11.40;9.30;;;5.30;99.90;;;;;;5079532;28;20172;-73
2022/04/01 11:25:31;;;;;;;10.07;8.80;;;5.30;99.90;;;;;;5058989;28;20650;-73
2022/04/01 11:27:57;;;;;;;10.37;9.03;;;5.30;99.90;;;;;;5058628;28;20188;-74
2022/04/01 11:30:30;;;;;;;9.80;8.80;;;5.20;99.90;;;;;;5066236;28;20185;-74
2022/04/01 11:33:20;;;;;;;11.03;9.17;;;5.20;99.90;;;;;;5061678;28;20204;-74
2022/04/01 11:35:50;;;;;;;10.13;8.70;;;5.20;99.90;;;;;;5061596;28;20208;-74
2022/04/01 11:38:18;;;;;;;12.90;9.23;;;5.10;99.90;;;;;;5059894;28;20268;-73
2022/04/01 11:40:46;;;;;;;11.47;9.37;;;5.10;99.90;;;;;;5057815;28;20292;-74
2022/04/01 11:43:19;;;;;;;10.03;8.33;;;5.10;99.90;;;;;;5063846;28;20200;-74
2022/04/01 11:45:54;;;;;;;11.83;9.10;;;5.10;99.90;;;;;;5062019;28;20190;-74
2022/04/01 11:48:28;;;;;;;12.10;10.63;;;5.10;99.90;;;;;;5060049;28;20203;-75
2022/04/01 11:51:00;;;;;;;13.03;10.40;;;5.20;99.90;;;;;;5062047;28;20173;-75
2022/04/01 11:53:31;;;;;;;11.70;10.23;;;5.30;99.90;;;;;;5066251;28;20776;-74
2022/04/01 11:55:59;;;;;;;12.60;10.43;;;5.30;99.90;;;;;;5062451;28;20177;-75
2022/04/01 11:58:27;;;;;;;10.37;8.97;;;5.30;99.90;;;;;;5062429;28;20276;-74
2022/04/01 12:00:53;;;;;;;9.40;8.40;;;5.30;99.90;;;;;;5065187;28;20254;-73
2022/04/01 12:03:21;;;;;;;10.10;9.00;;;5.20;99.90;;;;;;5064059;28;20214;-74
2022/04/01 12:05:52;;;;;;;10.43;9.17;;;5.30;99.90;;;;;;5058762;28;20177;-73
2022/04/01 12:11:06;;;;;;;10.73;8.23;;;5.20;99.90;;;;;;5056550;28;20267;-72
2022/04/01 12:13:33;;;;;;;9.77;8.77;;;5.10;99.90;;;;;;5061762;28;20200;-75
2022/04/01 12:15:59;;;;;;;11.03;9.40;;;5.10;99.90;;;;;;5060395;28;20189;-75
2022/04/01 12:18:30;;;;;;;10.93;9.20;;;5.20;99.90;;;;;;5065822;28;20667;-75
2022/04/01 12:20:58;;;;;;;10.47;9.37;;;5.10;99.90;;;;;;5063233;28;20291;-72
2022/04/01 12:23:26;;;;;;;10.43;9.17;;;5.10;99.90;;;;;;5059881;28;20197;-75
2022/04/01 12:25:54;;;;;;;10.00;9.00;;;5.20;99.90;;;;;;5057173;28;20655;-73
2022/04/01 12:28:26;;;;;;;10.07;9.00;;;5.20;99.90;;;;;;5060204;28;20185;-73
2022/04/01 12:30:55;;;;;;;11.67;10.00;;;5.40;99.90;;;;;;5062195;28;20246;-72
2022/04/01 12:33:24;;;;;;;11.17;9.70;;;5.20;99.90;;;;;;5065529;28;20216;-73
2022/04/01 12:36:02;;;;;;;10.23;9.13;;;5.20;99.90;;;;;;5062728;28;20188;-74
2022/04/01 12:38:30;;;;;;;11.97;10.63;;;5.20;99.90;;;;;;5062372;28;20204;-73
2022/04/01 12:41:02;;;;;;;12.27;9.17;;;5.20;99.90;;;;;;5063131;28;20208;-73
2022/04/01 12:43:35;;;;;;;23.43;12.10;;;5.20;99.90;;;;;;5065618;28;20209;-73
2022/04/01 12:46:13;;;;;;;16.40;10.17;;;5.30;99.90;;;;;;5078696;28;20192;-73
2022/04/01 12:49:09;;;;;;;11.57;9.60;;;5.30;99.90;;;;;;5077547;28;20177;-76
2022/04/01 12:51:36;;;;;;;10.67;9.40;;;5.40;99.90;;;;;;5055244;28;20250;-72
2022/04/01 12:54:22;;;;;;;11.63;9.50;;;5.30;99.90;;;;;;5046057;28;20201;-72
2022/04/01 12:56:51;;;;;;;11.37;10.00;;;5.30;99.90;;;;;;5062817;28;20219;-72
2022/04/01 12:59:21;;;;;;;12.50;11.07;;;5.30;99.90;;;;;;5061269;28;20192;-73
2022/04/01 13:02:06;;;;;;;12.27;10.50;;;5.30;99.90;;;;;;5060479;28;21058;-72
2022/04/01 13:04:44;;;;;;;10.87;9.73;;;5.30;99.90;;;;;;5058699;28;20212;-72
2022/04/01 13:07:22;;;;;;;10.43;8.97;;;5.40;99.90;;;;;;5060238;28;20185;-72
2022/04/01 13:09:56;;;;;;;11.27;9.10;;;5.20;99.90;;;;;;5066821;28;20542;-72